createdAt,value
2018-08-24T00:00:13.253Z,7.30
2018-08-24T00:02:41.694Z,7.20
2018-08-24T00:05:10.098Z,6.27
2018-08-24T00:07:38.522Z,6.80
2018-08-24T00:10:07.028Z,6.10
2018-08-24T00:12:35.468Z,6.13
2018-08-24T00:15:03.905Z,6.23
2018-08-24T00:17:32.339Z,5.77
2018-08-24T00:20:01.542Z,4.87
2018-08-24T00:22:30.072Z,5.17
2018-08-24T00:24:58.558Z,5.43
2018-08-24T00:27:27.051Z,4.37
2018-08-24T00:29:55.441Z,4.53
2018-08-24T00:32:23.867Z,4.20
2018-08-24T00:34:53.113Z,4.23
2018-08-24T00:37:21.514Z,4.13
2018-08-24T00:39:50.814Z,3.67
2018-08-24T00:42:19.460Z,3.53
2018-08-24T00:44:47.888Z,3.33
2018-08-24T00:47:16.338Z,3.17
2018-08-24T00:49:44.859Z,2.90
2018-08-24T00:52:13.245Z,2.50
2018-08-24T00:54:41.667Z,2.60
2018-08-24T00:57:10.071Z,2.63
2018-08-24T00:59:38.474Z,2.40
2018-08-24T01:02:06.983Z,2.53
2018-08-24T01:04:36.508Z,2.80
2018-08-24T01:07:11.572Z,2.90
2018-08-24T01:09:40.664Z,2.87
2018-08-24T01:12:10.056Z,2.83
2018-08-24T01:14:39.265Z,2.70
2018-08-24T01:17:13.133Z,2.80
2018-08-24T01:19:42.077Z,2.70
2018-08-24T01:22:10.464Z,2.50
2018-08-24T01:24:38.920Z,2.43
2018-08-24T01:27:08.051Z,3.17
2018-08-24T01:29:37.658Z,2.57
2018-08-24T01:32:06.539Z,2.70
2018-08-24T01:34:35.956Z,2.97
2018-08-24T01:37:04.494Z,2.70
2018-08-24T01:39:33.840Z,2.70
2018-08-24T01:42:02.446Z,2.87
2018-08-24T01:44:31.000Z,2.43
2018-08-24T01:46:59.448Z,2.53
2018-08-24T01:49:27.941Z,3.30
2018-08-24T01:51:56.393Z,3.43
2018-08-24T01:54:24.785Z,3.17
2018-08-24T01:56:53.212Z,4.10
2018-08-24T01:59:21.640Z,3.27
2018-08-24T02:01:50.110Z,3.80
2018-08-24T02:04:19.155Z,3.57
2018-08-24T02:06:47.703Z,3.97
2018-08-24T02:09:16.134Z,3.47
2018-08-24T02:11:44.577Z,3.70
2018-08-24T02:14:18.613Z,4.00
2018-08-24T02:16:46.968Z,3.37
2018-08-24T02:19:16.609Z,3.90
2018-08-24T02:21:50.668Z,3.50
2018-08-24T02:24:19.354Z,3.50
2018-08-24T02:26:48.051Z,3.37
2018-08-24T02:29:16.459Z,3.43
2018-08-24T02:31:48.877Z,3.33
2018-08-24T02:34:17.309Z,3.03
2018-08-24T02:36:50.674Z,3.80
2018-08-24T02:39:20.221Z,3.07
2018-08-24T02:41:48.817Z,3.07
2018-08-24T02:44:17.291Z,3.10
2018-08-24T02:46:46.432Z,2.90
2018-08-24T02:49:14.948Z,3.03
2018-08-24T02:51:43.436Z,2.83
2018-08-24T02:54:11.829Z,2.50
2018-08-24T02:56:40.205Z,2.53
2018-08-24T02:59:11.619Z,2.37
2018-08-24T03:01:40.006Z,2.43
2018-08-24T03:04:08.451Z,2.47
2018-08-24T03:06:37.412Z,2.67
2018-08-24T03:09:08.940Z,2.93
2018-08-24T03:11:38.056Z,2.43
2018-08-24T03:14:06.724Z,2.40
2018-08-24T03:16:35.296Z,2.93
2018-08-24T03:19:04.119Z,2.67
2018-08-24T03:21:32.557Z,2.60
2018-08-24T03:24:00.975Z,2.70
2018-08-24T03:26:29.381Z,2.20
2018-08-24T03:28:57.815Z,2.97
2018-08-24T03:31:26.200Z,2.97
2018-08-24T03:33:54.568Z,2.90
2018-08-24T03:36:22.987Z,2.87
2018-08-24T03:38:52.101Z,2.70
2018-08-24T03:41:23.479Z,2.83
2018-08-24T03:43:51.878Z,3.17
2018-08-24T03:46:20.356Z,3.10
2018-08-24T03:48:48.836Z,2.93
2018-08-24T03:51:17.285Z,3.20
2018-08-24T03:53:45.800Z,3.00
2018-08-24T03:56:14.430Z,3.20
2018-08-24T03:58:43.030Z,3.07
2018-08-24T04:01:11.412Z,2.80
2018-08-24T04:03:39.889Z,3.03
2018-08-24T04:06:08.301Z,3.17
2018-08-24T04:08:36.698Z,3.10
2018-08-24T04:11:05.535Z,3.50
2018-08-24T04:13:34.252Z,3.33
2018-08-24T04:16:02.648Z,3.50
2018-08-24T04:18:31.086Z,2.90
2018-08-24T04:20:59.515Z,2.83
2018-08-24T04:23:28.030Z,3.40
2018-08-24T04:25:56.508Z,2.83
2018-08-24T04:28:24.894Z,3.17
2018-08-24T04:30:53.371Z,3.47
2018-08-24T04:33:21.754Z,2.90
2018-08-24T04:35:50.224Z,3.87
2018-08-24T04:38:18.718Z,3.27
2018-08-24T04:40:47.112Z,3.20
2018-08-24T04:43:15.617Z,2.70
2018-08-24T04:45:44.215Z,3.27
2018-08-24T04:48:12.664Z,3.30
2018-08-24T04:50:41.101Z,2.87
2018-08-24T04:53:09.695Z,3.10
2018-08-24T04:55:38.285Z,3.20
2018-08-24T04:58:06.760Z,2.73
2018-08-24T05:00:35.741Z,3.10
2018-08-24T05:03:04.165Z,2.30
2018-08-24T05:05:32.561Z,2.70
2018-08-24T05:08:01.145Z,2.70
2018-08-24T05:10:29.576Z,2.70
2018-08-24T05:12:57.975Z,2.70
2018-08-24T05:15:27.134Z,3.00
2018-08-24T05:17:55.787Z,3.03
2018-08-24T05:20:24.995Z,2.93
2018-08-24T05:22:53.508Z,2.70
2018-08-24T05:25:21.972Z,2.40
2018-08-24T05:27:50.421Z,2.50
2018-08-24T05:30:18.897Z,2.73
2018-08-24T05:32:47.860Z,2.70
2018-08-24T05:37:49.217Z,2.97
2018-08-24T05:40:17.702Z,2.40
2018-08-24T05:42:46.197Z,2.80
2018-08-24T05:45:20.570Z,2.83
2018-08-24T05:47:49.660Z,3.13
2018-08-24T05:50:18.104Z,2.93
2018-08-24T05:52:46.564Z,2.70
2018-08-24T05:55:15.147Z,2.73
2018-08-24T05:57:43.925Z,3.07
2018-08-24T06:00:12.384Z,2.87
2018-08-24T06:02:40.874Z,3.50
2018-08-24T06:05:09.315Z,3.07
2018-08-24T06:07:37.932Z,3.13
2018-08-24T06:10:06.900Z,3.30
2018-08-24T06:12:35.314Z,3.67
2018-08-24T06:16:15.809Z,2.90
2018-08-24T06:19:04.268Z,3.33
2018-08-24T06:21:38.478Z,3.77
2018-08-24T06:24:07.063Z,3.27
2018-08-24T06:26:35.764Z,3.47
2018-08-24T06:29:04.376Z,3.90
2018-08-24T06:31:49.488Z,3.80
2018-08-24T06:34:18.453Z,3.93
2018-08-24T06:36:49.384Z,3.70
2018-08-24T06:39:18.157Z,3.60
2018-08-24T06:41:52.695Z,3.00
2018-08-24T06:44:22.489Z,3.17
2018-08-24T06:46:52.961Z,3.77
2018-08-24T06:49:21.592Z,3.27
2018-08-24T06:51:50.145Z,3.30
2018-08-24T06:54:19.566Z,3.73
2018-08-24T06:56:48.481Z,3.10
2018-08-24T06:59:17.628Z,3.30
2018-08-24T07:01:46.423Z,3.40
2018-08-24T07:04:15.113Z,3.10
2018-08-24T07:06:44.329Z,2.77
2018-08-24T07:09:13.441Z,2.33
2018-08-24T07:11:42.497Z,3.07
2018-08-24T07:14:12.200Z,2.83
2018-08-24T07:16:41.145Z,2.23
2018-08-24T07:19:11.111Z,3.00
2018-08-24T07:21:41.281Z,2.60
2018-08-24T07:24:19.250Z,2.40
2018-08-24T07:26:47.928Z,2.57
2018-08-24T07:29:31.241Z,2.23
2018-08-24T07:32:00.501Z,2.10
2018-08-24T07:34:32.512Z,2.43
2018-08-24T07:37:08.959Z,2.57
2018-08-24T07:39:38.169Z,2.30
2018-08-24T07:42:06.820Z,2.17
2018-08-24T07:44:40.616Z,2.20
2018-08-24T07:47:10.270Z,1.90
2018-08-24T07:49:38.795Z,2.20
2018-08-24T07:52:07.510Z,2.00
2018-08-24T07:54:36.393Z,2.00
2018-08-24T07:57:06.175Z,2.37
2018-08-24T07:59:43.607Z,1.77
2018-08-24T08:02:12.645Z,1.93
2018-08-24T08:04:41.531Z,1.63
2018-08-24T08:07:10.020Z,1.67
2018-08-24T08:09:38.913Z,1.80
2018-08-24T08:12:07.921Z,1.80
2018-08-24T08:14:36.800Z,1.83
2018-08-24T08:17:05.337Z,1.70
2018-08-24T08:19:33.899Z,1.80
2018-08-24T08:22:03.143Z,2.00
2018-08-24T08:24:31.730Z,2.00
2018-08-24T08:27:00.497Z,1.83
2018-08-24T08:30:02.569Z,1.67
2018-08-24T08:32:31.856Z,1.80
2018-08-24T08:35:02.205Z,2.13
2018-08-24T08:37:31.402Z,1.87
2018-08-24T08:40:02.305Z,1.50
2018-08-24T08:42:32.344Z,1.80
2018-08-24T08:45:01.529Z,1.80
2018-08-24T08:47:30.730Z,1.67
2018-08-24T08:50:00.220Z,2.17
2018-08-24T08:52:29.681Z,1.67
2018-08-24T08:54:59.011Z,1.80
2018-08-24T08:57:28.635Z,1.83
2018-08-24T08:59:57.989Z,2.57
2018-08-24T09:02:27.655Z,1.63
2018-08-24T09:04:57.255Z,1.47
2018-08-24T09:07:27.408Z,1.80
2018-08-24T09:09:57.248Z,1.90
2018-08-24T09:12:26.438Z,1.87
2018-08-24T09:14:56.090Z,1.93
2018-08-24T09:17:30.377Z,1.50
2018-08-24T09:20:05.052Z,1.60
2018-08-24T09:22:39.100Z,1.67
2018-08-24T09:25:13.951Z,1.80
2018-08-24T09:27:48.977Z,1.23
2018-08-24T09:30:19.185Z,1.57
2018-08-24T09:32:49.982Z,1.87
2018-08-24T09:35:19.911Z,2.00
2018-08-24T09:37:49.172Z,2.07
2018-08-24T09:40:19.122Z,2.17
2018-08-24T09:42:48.679Z,2.20
2018-08-24T09:45:18.602Z,2.00
2018-08-24T09:47:53.545Z,1.90
2018-08-24T09:50:28.741Z,1.97
2018-08-24T09:53:03.073Z,2.30
2018-08-24T09:55:37.955Z,2.10
2018-08-24T09:58:07.543Z,2.00
2018-08-24T10:00:42.351Z,1.80
2018-08-24T10:03:17.562Z,1.90
2018-08-24T10:05:52.329Z,2.40
2018-08-24T10:08:31.525Z,2.57
2018-08-24T10:11:01.531Z,2.20
2018-08-24T10:13:32.444Z,2.13
2018-08-24T10:16:02.614Z,2.87
2018-08-24T10:18:32.528Z,2.30
2018-08-24T10:21:03.195Z,2.33
2018-08-24T10:23:32.767Z,2.33
2018-08-24T10:26:02.072Z,2.27
2018-08-24T10:28:31.812Z,3.40
2018-08-24T10:31:01.204Z,2.60
2018-08-24T10:33:30.931Z,2.50
2018-08-24T10:36:00.196Z,2.60
2018-08-24T10:38:29.623Z,2.57
2018-08-24T10:40:58.671Z,3.33
2018-08-24T10:43:29.130Z,2.40
2018-08-24T10:45:58.522Z,2.70
2018-08-24T10:48:28.031Z,2.70
2018-08-24T10:50:57.380Z,2.80
2018-08-24T10:53:26.447Z,2.80
2018-08-24T10:55:55.776Z,2.50
2018-08-24T10:58:24.557Z,2.50
2018-08-24T11:00:54.562Z,2.40
2018-08-24T11:03:23.415Z,2.40
2018-08-24T11:05:53.114Z,2.77
2018-08-24T11:08:22.252Z,2.80
2018-08-24T11:10:51.743Z,2.50
2018-08-24T11:13:20.409Z,2.93
2018-08-24T11:15:49.965Z,2.70
2018-08-24T11:18:19.161Z,2.90
2018-08-24T11:20:48.007Z,2.80
2018-08-24T11:23:17.933Z,3.00
2018-08-24T11:25:46.488Z,3.10
2018-08-24T11:28:15.172Z,3.20
2018-08-24T11:30:43.892Z,3.00
2018-08-24T11:33:12.871Z,3.53
2018-08-24T11:35:43.041Z,3.10
2018-08-24T11:38:12.604Z,3.00
2018-08-24T11:40:42.528Z,3.17
2018-08-24T11:43:11.855Z,3.03
2018-08-24T11:45:42.145Z,2.93
2018-08-24T11:48:11.602Z,2.83
2018-08-24T11:50:42.396Z,2.90
2018-08-24T11:53:12.403Z,2.90
2018-08-24T11:55:42.820Z,2.97
2018-08-24T11:58:13.107Z,2.50
2018-08-24T12:00:42.651Z,2.63
2018-08-24T12:03:13.041Z,2.70
2018-08-24T12:05:43.195Z,2.37
2018-08-24T12:08:14.377Z,2.10
2018-08-24T12:10:44.064Z,3.13
2018-08-24T12:13:13.793Z,2.50
2018-08-24T12:15:44.215Z,2.20
2018-08-24T12:18:15.000Z,1.80
2018-08-24T12:20:45.035Z,2.20
2018-08-24T12:23:14.246Z,2.20
2018-08-24T12:25:43.990Z,2.37
2018-08-24T12:28:15.620Z,1.90
2018-08-24T12:30:45.635Z,1.80
2018-08-24T12:33:15.268Z,2.13
2018-08-24T12:35:44.693Z,1.90
2018-08-24T12:38:14.929Z,2.03
2018-08-24T12:40:45.576Z,1.97
2018-08-24T12:43:15.945Z,1.90
2018-08-24T12:45:46.450Z,2.10
2018-08-24T12:48:16.219Z,1.63
2018-08-24T12:50:48.443Z,1.70
2018-08-24T12:53:17.654Z,1.67
2018-08-24T12:55:48.040Z,1.70
2018-08-24T12:58:18.147Z,1.90
2018-08-24T13:00:51.658Z,1.77
2018-08-24T13:03:21.146Z,1.40
2018-08-24T13:05:50.924Z,1.83
2018-08-24T13:08:21.122Z,1.70
2018-08-24T13:10:50.776Z,1.73
2018-08-24T13:13:20.178Z,1.57
2018-08-24T13:15:49.406Z,1.30
2018-08-24T13:18:46.973Z,1.30
2018-08-24T13:21:17.103Z,1.40
2018-08-24T13:23:47.065Z,1.50
2018-08-24T13:26:17.335Z,1.80
2018-08-24T13:28:47.463Z,1.90
2018-08-24T13:31:18.208Z,1.43
2018-08-24T13:33:48.936Z,1.43
2018-08-24T13:36:19.785Z,1.70
2018-08-24T13:38:50.079Z,1.30
2018-08-24T13:41:19.596Z,1.70
2018-08-24T13:43:49.307Z,1.60
2018-08-24T13:46:20.519Z,1.37
2018-08-24T13:48:51.748Z,1.40
2018-08-24T13:51:21.945Z,1.60
2018-08-24T13:53:52.392Z,1.70
2018-08-24T13:56:22.021Z,2.07
2018-08-24T13:58:52.914Z,1.57
2018-08-24T14:01:23.838Z,1.80
2018-08-24T14:03:53.780Z,1.70
2018-08-24T14:06:23.445Z,1.80
2018-08-24T14:08:53.155Z,2.00
2018-08-24T14:11:24.064Z,1.67
2018-08-24T14:13:53.578Z,2.17
2018-08-24T14:16:22.879Z,1.90
2018-08-24T14:18:59.985Z,2.47
2018-08-24T14:21:30.093Z,1.90
2018-08-24T14:24:00.490Z,2.33
2018-08-24T14:26:29.766Z,2.50
2018-08-24T14:28:59.858Z,2.67
2018-08-24T14:31:30.909Z,2.20
2018-08-24T14:34:01.406Z,2.30
2018-08-24T14:36:32.542Z,2.43
2018-08-24T14:39:01.872Z,2.27
2018-08-24T14:41:31.541Z,2.27
2018-08-24T14:44:01.480Z,2.60
2018-08-24T14:46:31.393Z,2.70
2018-08-24T14:49:01.570Z,2.80
2018-08-24T14:51:31.206Z,2.57
2018-08-24T14:54:01.735Z,3.20
2018-08-24T14:56:32.493Z,2.87
2018-08-24T14:59:01.912Z,2.93
2018-08-24T15:01:32.201Z,3.23
2018-08-24T15:04:02.607Z,2.90
2018-08-24T15:06:32.571Z,3.07
2018-08-24T15:09:04.126Z,3.10
2018-08-24T15:11:33.679Z,3.63
2018-08-24T15:14:03.180Z,3.37
2018-08-24T15:16:32.620Z,3.57
2018-08-24T15:19:02.182Z,3.20
2018-08-24T15:21:31.391Z,3.40
2018-08-24T15:24:03.001Z,3.20
2018-08-24T15:26:33.758Z,3.10
2018-08-24T15:29:04.320Z,3.20
2018-08-24T15:31:34.775Z,3.23
2018-08-24T15:34:05.990Z,2.63
2018-08-24T15:36:35.151Z,3.03
2018-08-24T15:39:08.972Z,2.70
2018-08-24T15:41:39.651Z,2.77
2018-08-24T15:44:10.664Z,2.57
2018-08-24T15:46:40.348Z,2.50
2018-08-24T15:49:11.132Z,3.10
2018-08-24T15:51:40.990Z,2.47
2018-08-24T15:54:10.569Z,2.63
2018-08-24T15:56:40.583Z,2.77
2018-08-24T15:59:10.764Z,2.27
2018-08-24T16:01:40.964Z,2.90
2018-08-24T16:04:12.331Z,2.30
2018-08-24T16:06:42.651Z,2.47
2018-08-24T16:09:13.387Z,2.40
2018-08-24T16:11:44.474Z,2.30
2018-08-24T16:14:14.443Z,1.90
2018-08-24T16:16:44.328Z,2.20
2018-08-24T16:19:14.157Z,2.53
2018-08-24T16:21:43.728Z,2.40
2018-08-24T16:24:13.829Z,2.30
2018-08-24T16:26:43.438Z,2.00
2018-08-24T16:29:14.311Z,80.97
2018-08-24T16:31:43.027Z,56.10
2018-08-24T16:34:11.868Z,33.93
2018-08-24T16:36:40.698Z,20.73
2018-08-24T16:39:10.444Z,16.23
2018-08-24T16:41:39.518Z,13.40
2018-08-24T16:44:08.065Z,13.53
2018-08-24T16:46:36.470Z,12.30
2018-08-24T16:49:05.461Z,11.73
2018-08-24T16:51:34.973Z,10.93
2018-08-24T16:54:04.689Z,9.70
2018-08-24T16:56:36.028Z,8.00
2018-08-24T16:59:30.834Z,8.60
2018-08-24T17:02:01.226Z,7.47
2018-08-24T17:04:30.334Z,7.03
2018-08-24T17:07:00.611Z,6.87
2018-08-24T17:09:30.626Z,7.70
2018-08-24T17:12:00.108Z,7.23
2018-08-24T17:14:28.764Z,6.63
2018-08-24T17:16:58.020Z,6.40
2018-08-24T17:19:27.123Z,5.80
2018-08-24T17:21:56.189Z,6.23
2018-08-24T17:24:24.729Z,6.30
2018-08-24T17:26:54.443Z,5.63
2018-08-24T17:29:23.860Z,6.10
2018-08-24T17:31:52.737Z,6.43
2018-08-24T17:34:21.972Z,6.53
2018-08-24T17:36:52.149Z,6.37
2018-08-24T17:39:20.770Z,5.67
2018-08-24T17:41:50.205Z,5.67
2018-08-24T17:44:19.961Z,7.20
2018-08-24T17:46:50.280Z,6.80
2018-08-24T17:49:21.737Z,6.37
2018-08-24T17:52:09.193Z,6.90
2018-08-24T17:54:38.180Z,6.30
2018-08-24T17:57:07.475Z,6.30
2018-08-24T17:59:36.127Z,7.20
2018-08-24T18:02:05.032Z,7.03
2018-08-24T18:04:34.989Z,7.33
2018-08-24T18:07:04.373Z,7.87
2018-08-24T18:09:33.833Z,6.67
2018-08-24T18:12:03.273Z,7.83
2018-08-24T18:14:36.999Z,8.27
2018-08-24T18:17:06.362Z,7.23
2018-08-24T18:19:35.844Z,8.27
2018-08-24T18:22:05.709Z,9.40
2018-08-24T18:24:36.109Z,9.07
2018-08-24T18:27:05.080Z,8.77
2018-08-24T18:29:34.220Z,8.80
2018-08-24T18:32:03.501Z,9.27
2018-08-24T18:34:32.732Z,10.53
2018-08-24T18:37:01.704Z,11.03
2018-08-24T18:39:30.203Z,10.40
2018-08-24T18:41:58.801Z,11.70
2018-08-24T18:44:27.855Z,11.87
2018-08-24T18:46:56.771Z,11.80
2018-08-24T18:49:25.312Z,12.63
2018-08-24T18:51:54.266Z,11.17
2018-08-24T18:54:36.491Z,11.57
2018-08-24T18:57:05.954Z,11.17
2018-08-24T18:59:34.576Z,11.43
2018-08-24T19:02:03.848Z,11.40
2018-08-24T19:04:33.519Z,11.13
2018-08-24T19:07:04.542Z,10.27
2018-08-24T19:09:33.853Z,10.30
2018-08-24T19:12:08.126Z,9.20
2018-08-24T19:14:38.030Z,9.40
2018-08-24T19:17:11.757Z,7.87
2018-08-24T19:19:46.547Z,8.10
2018-08-24T19:22:15.693Z,6.63
2018-08-24T19:24:45.150Z,5.73
2018-08-24T19:27:13.840Z,6.43
2018-08-24T19:29:48.101Z,6.17
2018-08-24T19:32:16.466Z,5.53
2018-08-24T19:34:44.976Z,5.47
2018-08-24T19:37:13.625Z,5.03
2018-08-24T19:39:46.300Z,5.10
2018-08-24T19:42:20.258Z,5.50
2018-08-24T19:44:48.793Z,4.40
2018-08-24T19:47:22.517Z,4.30
2018-08-24T19:49:51.136Z,4.50
2018-08-24T19:52:19.555Z,4.20
2018-08-24T19:54:48.024Z,4.33
2018-08-24T19:57:21.848Z,3.50
2018-08-24T19:59:50.311Z,3.60
2018-08-24T20:02:18.783Z,4.03
2018-08-24T20:04:48.390Z,3.20
2018-08-24T20:07:22.038Z,2.67
2018-08-24T20:09:55.836Z,2.80
2018-08-24T20:12:24.279Z,2.93
2018-08-24T20:14:58.052Z,3.07
2018-08-24T20:17:29.769Z,2.13
2018-08-24T20:19:59.020Z,2.70
2018-08-24T20:22:27.599Z,2.53
2018-08-24T20:24:56.012Z,2.20
2018-08-24T20:27:24.484Z,2.50
2018-08-24T20:29:53.363Z,2.30
2018-08-24T20:32:21.888Z,2.23
2018-08-24T20:34:51.729Z,2.13
2018-08-24T20:37:20.964Z,2.87
2018-08-24T20:39:49.712Z,2.63
2018-08-24T20:42:18.112Z,2.30
2018-08-24T20:44:47.186Z,2.10
2018-08-24T20:47:16.034Z,2.27
2018-08-24T20:49:44.390Z,2.77
2018-08-24T20:52:12.809Z,2.60
2018-08-24T20:54:41.246Z,2.60
2018-08-24T20:57:09.696Z,2.10
2018-08-24T20:59:38.068Z,2.30
2018-08-24T21:02:06.805Z,2.30
2018-08-24T21:04:35.323Z,2.87
2018-08-24T21:07:03.724Z,2.27
2018-08-24T21:09:32.124Z,2.43
2018-08-24T21:12:00.630Z,2.70
2018-08-24T21:14:29.048Z,2.50
2018-08-24T21:16:57.539Z,2.77
2018-08-24T21:19:26.006Z,2.30
2018-08-24T21:21:55.448Z,2.83
2018-08-24T21:24:24.501Z,3.10
2018-08-24T21:26:54.089Z,3.30
2018-08-24T21:29:22.610Z,3.37
2018-08-24T21:31:51.080Z,3.60
2018-08-24T21:34:19.469Z,3.10
2018-08-24T21:36:47.852Z,2.97
2018-08-24T21:39:16.345Z,3.30
2018-08-24T21:41:45.339Z,3.17
2018-08-24T21:44:13.742Z,2.90
2018-08-24T21:46:42.404Z,3.40
2018-08-24T21:49:10.777Z,3.20
2018-08-24T21:51:39.418Z,2.80
2018-08-24T21:54:08.240Z,3.40
2018-08-24T21:56:36.657Z,3.67
2018-08-24T21:59:05.249Z,3.27
2018-08-24T22:01:34.035Z,3.40
2018-08-24T22:04:02.617Z,3.57
2018-08-24T22:06:31.018Z,3.77
2018-08-24T22:08:59.360Z,3.43
2018-08-24T22:11:34.502Z,3.20
2018-08-24T22:14:04.252Z,3.33
2018-08-24T22:16:33.371Z,3.13
2018-08-24T22:19:02.752Z,3.40
2018-08-24T22:21:31.107Z,4.07
2018-08-24T22:23:59.490Z,3.10
2018-08-24T22:26:28.127Z,3.37
2018-08-24T22:28:56.492Z,3.90
2018-08-24T22:31:25.030Z,3.60
2018-08-24T22:33:53.512Z,3.77
2018-08-24T22:36:21.947Z,4.57
2018-08-24T22:38:50.312Z,9.57
2018-08-24T22:41:18.703Z,6.77
2018-08-24T22:43:47.357Z,65.40
2018-08-24T22:46:15.884Z,251.80
2018-08-24T22:48:44.628Z,245.20
2018-08-24T22:51:13.153Z,322.67
2018-08-24T22:53:41.708Z,321.87
2018-08-24T22:56:10.271Z,282.87
2018-08-24T22:58:38.973Z,266.23
2018-08-24T23:01:07.866Z,252.50
2018-08-24T23:03:36.536Z,208.70
2018-08-24T23:06:05.248Z,82.77
2018-08-24T23:08:33.973Z,94.00
2018-08-24T23:11:02.493Z,94.07
2018-08-24T23:13:31.229Z,102.60
2018-08-24T23:16:00.052Z,87.23
2018-08-24T23:18:28.935Z,61.93
2018-08-24T23:20:57.584Z,34.63
2018-08-24T23:23:26.108Z,29.87
2018-08-24T23:25:54.764Z,17.83
2018-08-24T23:28:23.255Z,20.00
2018-08-24T23:30:52.044Z,27.87
2018-08-24T23:33:20.708Z,24.70
2018-08-24T23:35:49.453Z,23.03
2018-08-24T23:38:18.168Z,19.77
2018-08-24T23:40:46.744Z,18.27
2018-08-24T23:43:15.432Z,16.57
2018-08-24T23:45:43.946Z,14.97
2018-08-24T23:48:12.713Z,13.73
2018-08-24T23:50:41.352Z,12.70
2018-08-24T23:53:09.866Z,11.17
2018-08-24T23:55:38.856Z,11.53
2018-08-24T23:58:07.364Z,10.27
